Time;durP1;ratioP1;P1;durP2;ratioP2;P2;SDS_P1;SDS_P2;PMS_P1;PMS_P2;Temp;Humidity;BMP_temperature;BMP_pressure;BME280_temperature;BME280_humidity;BME280_pressure;Samples;Min_cycle;Max_cycle;Signal;HPM_P1;HPM_P2
2021/09/03 01:53:28;;;;;;;14.00;8.13;;;;;;;13.64;81.13;102089.22;6102409;23;20025;-88
2021/09/03 01:55:54;;;;;;;14.07;6.95;;;;;;;13.64;81.30;102095.47;6046554;23;20022;-89
2021/09/03 01:58:19;;;;;;;14.45;8.32;;;;;;;13.63;81.79;102101.91;6023140;23;20017;-89
2021/09/03 02:00:45;;;;;;;16.42;7.55;;;;;;;13.48;81.43;102062.97;6023317;23;20010;-90
2021/09/03 02:03:11;;;;;;;14.75;7.85;;;;;;;13.69;81.47;102097.69;6023098;23;20068;-89
2021/09/03 02:05:43;;;;;;;13.90;7.57;;;;;;;13.72;81.33;102096.50;6023112;23;20029;-89
2021/09/03 02:08:09;;;;;;;17.08;7.82;;;;;;;13.74;80.71;102092.63;6046762;23;20159;-89
2021/09/03 02:10:35;;;;;;;17.00;7.72;;;;;;;13.70;80.47;102076.91;6023176;23;20594;-90
2021/09/03 02:13:01;;;;;;;16.00;7.70;;;;;;;13.73;80.66;102074.69;6046391;23;20009;-88
2021/09/03 02:15:26;;;;;;;14.80;7.32;;;;;;;13.71;80.62;102079.44;6022598;23;20006;-89
2021/09/03 02:17:52;;;;;;;15.68;7.80;;;;;;;13.70;80.42;102069.63;6023411;23;20017;-89
2021/09/03 02:20:18;;;;;;;16.15;7.85;;;;;;;13.64;80.23;102063.03;6025024;23;20006;-90
2021/09/03 02:22:45;;;;;;;15.32;7.40;;;;;;;13.73;79.88;102073.88;6046572;23;20041;-88
2021/09/03 02:25:11;;;;;;;14.85;6.45;;;;;;;13.70;79.68;102066.09;6016815;23;20010;-88
2021/09/03 02:27:37;;;;;;;13.27;7.00;;;;;;;13.73;79.60;102077.41;6063603;23;20447;-88
2021/09/03 02:30:04;;;;;;;16.88;7.97;;;;;;;13.70;79.70;102076.91;6069390;23;20008;-88
2021/09/03 02:32:31;;;;;;;17.17;7.50;;;;;;;13.76;79.45;102068.13;6025358;23;20075;-88
2021/09/03 02:34:57;;;;;;;14.82;7.05;;;;;;;13.77;79.83;102069.84;6024844;23;20006;-89
2021/09/03 02:37:22;;;;;;;17.30;6.90;;;;;;;13.73;79.07;102063.88;6024675;23;19999;-89
2021/09/03 02:39:48;;;;;;;15.55;6.57;;;;;;;13.62;78.89;102043.44;6024879;23;20110;-89
2021/09/03 02:42:13;;;;;;;16.30;7.18;;;;;;;13.71;78.68;102054.28;6024584;23;20428;-89
2021/09/03 02:44:39;;;;;;;16.55;7.20;;;;;;;13.73;78.43;102053.06;6024470;23;20006;-89
2021/09/03 02:47:05;;;;;;;15.75;6.45;;;;;;;13.73;78.51;102044.97;6024788;23;20037;-91
2021/09/03 02:49:30;;;;;;;15.65;7.05;;;;;;;13.78;79.08;102045.31;6024900;23;20436;-89
2021/09/03 02:51:56;;;;;;;11.38;6.50;;;;;;;13.75;79.13;102052.94;6024795;23;20017;-89
2021/09/03 02:54:21;;;;;;;13.50;7.15;;;;;;;13.68;79.67;102038.38;6024554;23;20018;-89
2021/09/03 02:56:47;;;;;;;13.13;6.55;;;;;;;13.61;80.40;102032.78;6047939;23;20010;-89
2021/09/03 02:59:13;;;;;;;12.80;6.53;;;;;;;13.52;80.97;102017.56;6024595;23;20444;-89
2021/09/03 03:01:38;;;;;;;14.48;7.10;;;;;;;13.49;81.45;102029.53;6024599;23;20014;-89
2021/09/03 03:04:04;;;;;;;19.67;7.40;;;;;;;13.34;81.46;102006.88;6072233;23;20010;-89
2021/09/03 03:06:29;;;;;;;13.43;6.82;;;;;;;13.58;80.90;102036.66;6072109;23;20006;-89
2021/09/03 03:08:55;;;;;;;13.55;6.57;;;;;;;13.63;81.10;102028.09;6024490;23;20006;-89
2021/09/03 03:11:21;;;;;;;16.65;7.15;;;;;;;13.66;80.73;102016.09;6024563;23;20007;-89
2021/09/03 03:13:48;;;;;;;15.52;6.70;;;;;;;13.68;81.16;102019.44;6024518;23;20064;-89
2021/09/03 03:16:15;;;;;;;12.90;7.13;;;;;;;13.64;81.47;102013.53;6024819;23;20098;-89
2021/09/03 03:18:41;;;;;;;14.38;6.28;;;;;;;13.65;81.52;102020.63;6024641;23;20015;-89
2021/09/03 03:21:07;;;;;;;13.43;6.57;;;;;;;13.62;81.98;102029.91;6048319;23;20010;-89
2021/09/03 03:23:33;;;;;;;14.70;7.32;;;;;;;13.60;81.85;102012.16;6072029;23;20011;-89
2021/09/03 03:25:59;;;;;;;13.48;5.88;;;;;;;13.61;81.98;102016.56;6024698;23;20069;-89
2021/09/03 03:28:24;;;;;;;12.70;5.97;;;;;;;13.44;82.78;102001.31;6048049;23;20003;-89
2021/09/03 03:30:50;;;;;;;16.65;7.20;;;;;;;13.47;82.99;102012.66;6042374;23;20006;-89
2021/09/03 03:33:16;;;;;;;14.27;6.60;;;;;;;13.45;82.80;102013.84;6045338;23;20002;-87
2021/09/03 03:35:41;;;;;;;17.48;7.13;;;;;;;13.29;83.21;102003.81;6021425;23;20373;-89
2021/09/03 03:38:07;;;;;;;13.50;6.47;;;;;;;13.32;83.23;102012.44;6043444;23;20011;-88
2021/09/03 03:40:33;;;;;;;14.57;7.15;;;;;;;13.36;83.17;102012.94;6017050;23;20038;-88
2021/09/03 03:42:59;;;;;;;15.82;6.90;;;;;;;13.27;83.40;102005.84;6016372;23;20010;-87
2021/09/03 03:45:25;;;;;;;15.82;7.28;;;;;;;13.28;83.94;102002.09;6015845;23;20011;-87
2021/09/03 03:47:51;;;;;;;12.90;6.70;;;;;;;13.27;84.24;101995.88;6064272;23;20041;-89
2021/09/03 03:50:16;;;;;;;14.52;7.32;;;;;;;13.23;84.23;102004.41;6016500;23;20006;-89
2021/09/03 03:52:42;;;;;;;14.75;6.65;;;;;;;13.24;84.12;101998.03;6015451;23;20017;-88
2021/09/03 03:55:08;;;;;;;15.52;7.03;;;;;;;13.18;83.79;101994.97;6014384;23;20037;-88
2021/09/03 03:57:34;;;;;;;13.88;7.32;;;;;;;13.23;83.65;102009.81;6016929;23;20432;-88
2021/09/03 04:00:00;;;;;;;17.02;7.13;;;;;;;13.21;83.28;101999.19;6063883;23;20013;-86
2021/09/03 04:02:25;;;;;;;14.73;7.07;;;;;;;13.16;83.58;101988.88;6041753;23;20400;-88
2021/09/03 04:04:51;;;;;;;14.40;7.13;;;;;;;13.19;83.72;101990.41;6040232;23;20003;-88
2021/09/03 04:07:17;;;;;;;13.27;5.93;;;;;;;13.21;83.79;101999.19;6041489;23;20002;-87
2021/09/03 04:09:42;;;;;;;14.63;6.43;;;;;;;13.17;84.25;101995.97;6062478;23;20018;-86
2021/09/03 04:12:09;;;;;;;14.52;7.03;;;;;;;13.04;84.24;101967.72;6016301;23;20097;-87
2021/09/03 04:14:35;;;;;;;18.33;7.70;;;;;;;13.18;84.17;101988.72;6040622;23;20527;-87
2021/09/03 04:17:01;;;;;;;13.82;6.50;;;;;;;13.11;84.39;101982.28;6015951;23;20002;-87
2021/09/03 04:19:26;;;;;;;13.52;6.95;;;;;;;13.16;84.68;101983.47;6040392;23;20317;-87
2021/09/03 04:21:52;;;;;;;12.77;6.80;;;;;;;13.18;84.11;101986.03;6016383;23;20368;-87
2021/09/03 04:24:18;;;;;;;15.45;7.00;;;;;;;13.15;83.88;101976.38;6041230;23;20010;-87
2021/09/03 04:26:43;;;;;;;15.93;7.80;;;;;;;13.17;83.73;101970.81;6016174;23;20006;-87
2021/09/03 04:29:09;;;;;;;14.25;6.55;;;;;;;13.15;83.71;101973.69;6063274;23;20010;-87
2021/09/03 04:31:35;;;;;;;15.95;7.50;;;;;;;13.09;84.02;101944.63;6016289;23;20017;-87
2021/09/03 04:34:00;;;;;;;14.95;7.00;;;;;;;13.18;84.34;101959.00;6016855;23;20014;-87
2021/09/03 04:36:26;;;;;;;15.95;7.78;;;;;;;13.10;84.06;101940.94;6087078;23;20424;-88
2021/09/03 04:38:52;;;;;;;13.73;7.40;;;;;;;13.26;83.83;101968.97;6016398;23;20014;-87
2021/09/03 04:41:18;;;;;;;14.35;7.53;;;;;;;13.17;83.73;101963.53;6063373;23;20380;-87
2021/09/03 04:43:43;;;;;;;14.52;7.32;;;;;;;13.23;83.88;101964.78;6016054;23;20042;-88
2021/09/03 04:46:09;;;;;;;13.98;7.03;;;;;;;13.16;83.50;101961.88;6041485;23;20006;-87
2021/09/03 04:48:35;;;;;;;14.88;6.70;;;;;;;13.08;83.81;101951.03;6017207;23;20006;-86
2021/09/03 04:51:00;;;;;;;16.55;7.18;;;;;;;13.16;83.68;101961.88;6018732;23;20560;-87
2021/09/03 04:53:26;;;;;;;18.23;8.23;;;;;;;13.07;84.04;101943.97;6018324;23;20077;-88
2021/09/03 04:55:53;;;;;;;12.05;7.15;;;;;;;13.13;84.32;101948.69;6041634;23;20018;-87
2021/09/03 04:58:18;;;;;;;17.95;7.72;;;;;;;13.13;84.54;101956.81;6069922;23;20022;-88
2021/09/03 12:09:33;;;;;;;15.45;7.20;;;;;;;18.03;68.12;101755.22;6122053;23;20527;-86
2021/09/03 14:15:56;;;;;;;16.70;8.18;;;;;;;17.80;69.50;101695.63;6125643;23;20040;-87
2021/09/03 14:18:22;;;;;;;15.55;7.20;;;;;;;17.88;69.23;101690.03;6048924;23;20332;-87
2021/09/03 14:20:47;;;;;;;16.08;7.95;;;;;;;17.82;68.75;101677.25;6048733;23;20883;-86
2021/09/03 14:23:13;;;;;;;14.80;7.72;;;;;;;17.89;67.52;101678.13;6072915;23;20016;-87
2021/09/03 14:25:39;;;;;;;19.23;8.07;;;;;;;18.08;66.47;101683.84;6035407;23;20017;-87
2021/09/03 14:28:07;;;;;;;15.52;9.10;;;;;;;18.06;66.25;101666.88;6091823;23;20002;-87
2021/09/03 14:30:34;;;;;;;16.20;7.85;;;;;;;17.98;66.56;101648.84;6043850;23;20002;-86
2021/09/03 14:32:59;;;;;;;14.07;7.75;;;;;;;18.07;67.55;101663.13;6043594;23;20012;-87
2021/09/03 14:35:25;;;;;;;13.20;7.95;;;;;;;18.05;67.02;101666.06;6043906;23;20006;-86
2021/09/03 14:37:51;;;;;;;16.17;8.15;;;;;;;17.96;66.49;101668.09;6067879;23;20010;-87
2021/09/03 14:40:16;;;;;;;13.80;7.22;;;;;;;17.91;66.14;101650.69;6019992;23;20034;-87
2021/09/03 14:42:42;;;;;;;16.15;8.52;;;;;;;17.88;65.87;101656.53;6043763;23;20012;-87
2021/09/03 14:45:08;;;;;;;17.52;8.18;;;;;;;17.92;66.43;101655.13;6020145;23;20034;-89
2021/09/03 14:47:34;;;;;;;14.30;7.82;;;;;;;17.94;66.50;101648.44;6067714;23;20002;-87
2021/09/03 14:50:00;;;;;;;14.43;7.93;;;;;;;17.87;66.84;101631.22;6067549;23;20002;-87
2021/09/03 14:52:26;;;;;;;15.30;7.55;;;;;;;17.95;67.41;101644.66;6019608;23;20010;-87
2021/09/03 14:54:51;;;;;;;13.93;7.65;;;;;;;17.87;67.46;101630.41;6018120;23;20441;-86
2021/09/03 14:57:17;;;;;;;16.25;8.23;;;;;;;17.86;67.52;101623.25;6041193;23;20673;-87
2021/09/03 14:59:43;;;;;;;14.75;7.72;;;;;;;17.88;68.13;101627.44;6017908;23;20016;-87
2021/09/03 15:02:08;;;;;;;13.75;7.43;;;;;;;17.81;68.95;101623.88;6017837;23;20775;-87
2021/09/03 15:04:34;;;;;;;16.73;8.63;;;;;;;17.76;69.28;101615.47;6041425;23;20045;-88
2021/09/03 15:06:59;;;;;;;13.27;7.22;;;;;;;17.77;69.13;101623.41;6018023;23;20340;-87
2021/09/03 15:09:26;;;;;;;16.95;7.63;;;;;;;17.77;68.33;101620.69;6019866;23;20006;-87
2021/09/03 15:11:52;;;;;;;15.38;8.30;;;;;;;17.74;68.18;101620.25;6066897;23;20029;-87
2021/09/03 15:14:18;;;;;;;12.32;7.32;;;;;;;17.67;68.19;101613.94;6019347;23;20007;-87
2021/09/03 15:16:43;;;;;;;19.65;8.15;;;;;;;17.65;68.88;101608.72;6066540;23;20015;-88
2021/09/03 15:19:11;;;;;;;14.93;8.07;;;;;;;17.58;69.51;101595.06;6019579;23;20033;-85
2021/09/03 15:21:37;;;;;;;18.25;9.27;;;;;;;17.62;69.41;101606.38;6043127;23;20200;-87
2021/09/03 15:24:03;;;;;;;15.70;7.80;;;;;;;17.61;69.39;101602.00;6067390;23;20015;-85
2021/09/03 15:26:29;;;;;;;14.63;7.57;;;;;;;17.53;69.16;101600.28;6044030;23;20006;-86
2021/09/03 15:28:55;;;;;;;16.85;8.35;;;;;;;17.54;70.02;101603.81;6067286;23;20499;-86
2021/09/03 15:31:20;;;;;;;17.02;7.85;;;;;;;17.49;69.86;101599.00;6018590;23;20035;-87
2021/09/03 15:33:47;;;;;;;14.60;7.88;;;;;;;17.50;69.63;101603.41;6019288;23;20017;-88
2021/09/03 15:36:16;;;;;;;17.48;7.57;;;;;;;17.56;69.08;101591.72;6019503;23;20060;-87
2021/09/03 15:38:41;;;;;;;13.50;7.45;;;;;;;17.62;68.94;101589.22;6043630;23;20085;-87
2021/09/03 15:41:07;;;;;;;17.38;7.93;;;;;;;17.58;68.19;101578.75;6067541;23;20093;-86
2021/09/03 15:43:32;;;;;;;17.13;7.93;;;;;;;17.59;67.33;101574.16;6019478;23;20013;-87
2021/09/03 15:45:58;;;;;;;16.20;8.38;;;;;;;17.55;67.33;101562.84;6043419;23;20013;-87
2021/09/03 15:48:24;;;;;;;15.27;8.73;;;;;;;17.46;68.25;101558.59;6043536;23;20003;-87
2021/09/03 15:50:49;;;;;;;14.60;7.28;;;;;;;17.67;67.69;101592.19;6019670;23;20579;-87
2021/09/03 15:53:15;;;;;;;17.42;7.70;;;;;;;17.55;67.26;101573.72;6043500;23;20002;-87
2021/09/03 15:55:42;;;;;;;18.90;8.20;;;;;;;17.53;67.77;101581.25;6019681;23;20424;-87
2021/09/03 15:58:10;;;;;;;15.63;8.00;;;;;;;17.46;68.58;101574.91;6067496;23;20642;-87
2021/09/03 16:00:45;;;;;;;17.40;8.05;;;;;;;17.42;69.21;101573.66;6045000;23;20002;-87
2021/09/03 16:03:10;;;;;;;15.07;7.57;;;;;;;17.40;69.83;101566.75;6019946;23;20065;-87
2021/09/03 16:05:37;;;;;;;15.48;8.55;;;;;;;17.49;69.38;101571.81;6019871;23;20011;-88
2021/09/03 16:08:03;;;;;;;14.48;8.00;;;;;;;17.56;68.66;101563.69;6067093;23;19998;-89
2021/09/03 16:10:29;;;;;;;15.02;8.20;;;;;;;17.55;68.98;101564.72;6066891;23;20009;-88
2021/09/03 16:12:55;;;;;;;14.73;7.65;;;;;;;17.50;68.86;101559.06;6019694;23;20014;-87
2021/09/03 16:15:20;;;;;;;14.65;7.90;;;;;;;17.42;69.97;101551.91;6020878;23;20021;-87
2021/09/03 16:17:47;;;;;;;14.93;8.13;;;;;;;17.42;70.40;101548.34;6067485;23;20054;-87
2021/09/03 16:20:13;;;;;;;16.23;8.27;;;;;;;17.48;71.07;101561.97;6019181;23;20037;-87
2021/09/03 16:22:40;;;;;;;17.30;7.60;;;;;;;17.48;69.59;101561.13;6019567;23;20018;-88
2021/09/03 16:25:06;;;;;;;18.25;8.95;;;;;;;17.48;69.37;101556.53;6067177;23;20375;-88
2021/09/03 16:27:32;;;;;;;18.95;8.85;;;;;;;17.43;68.84;101540.00;6019811;23;20003;-88
2021/09/03 16:29:57;;;;;;;19.88;8.18;;;;;;;17.56;68.50;101556.34;6018755;23;20593;-88
2021/09/03 16:32:23;;;;;;;20.38;9.15;;;;;;;17.56;68.26;101544.66;6067365;23;20003;-88
2021/09/03 16:34:49;;;;;;;19.90;10.88;;;;;;;17.69;68.16;101546.59;6043063;23;20006;-88
2021/09/03 16:37:16;;;;;;;17.73;8.88;;;;;;;17.73;68.42;101543.25;6042243;23;20006;-87
2021/09/03 16:39:41;;;;;;;15.18;7.53;;;;;;;17.72;68.55;101532.56;6042628;23;20006;-89
2021/09/03 16:42:08;;;;;;;13.88;7.97;;;;;;;17.80;69.36;101537.84;6019483;23;20048;-88
2021/09/03 16:44:33;;;;;;;16.58;8.75;;;;;;;17.76;69.00;101540.13;6068611;23;20006;-87
2021/09/03 16:47:03;;;;;;;16.67;9.07;;;;;;;17.77;68.17;101539.06;6048011;23;20089;-88
2021/09/03 16:49:29;;;;;;;16.27;8.63;;;;;;;17.87;67.84;101544.16;6042865;23;20804;-88
2021/09/03 16:51:55;;;;;;;17.52;9.57;;;;;;;17.93;67.96;101537.91;6065712;23;20013;-89
2021/09/03 16:54:20;;;;;;;14.25;9.40;;;;;;;17.89;68.27;101530.34;6041807;23;20007;-87
2021/09/03 16:56:46;;;;;;;20.35;8.52;;;;;;;17.90;68.35;101532.88;6018748;23;20456;-88
2021/09/03 16:59:12;;;;;;;20.30;8.85;;;;;;;17.85;68.32;101527.19;6042249;23;20006;-89
2021/09/03 17:01:37;;;;;;;16.83;8.77;;;;;;;17.87;68.79;101536.00;6019017;23;20017;-88
2021/09/03 17:04:03;;;;;;;15.88;8.73;;;;;;;17.79;68.84;101525.31;6042533;23;20002;-89
2021/09/03 17:06:29;;;;;;;17.00;7.63;;;;;;;17.79;68.60;101522.59;6018914;23;20392;-89
2021/09/03 17:08:54;;;;;;;17.70;8.48;;;;;;;17.75;68.54;101519.41;6042462;23;20329;-88
2021/09/03 17:11:20;;;;;;;16.13;8.32;;;;;;;17.66;69.10;101517.91;6066587;23;20017;-88
2021/09/03 17:13:46;;;;;;;16.50;8.90;;;;;;;17.67;68.74;101516.84;6019143;23;20089;-89
2021/09/03 17:16:12;;;;;;;18.40;9.07;;;;;;;17.71;67.65;101525.47;6018796;23;20157;-87
2021/09/03 17:18:37;;;;;;;14.95;8.75;;;;;;;17.61;67.42;101520.41;6042800;23;20449;-88
2021/09/03 17:21:03;;;;;;;16.00;8.50;;;;;;;17.43;67.73;101498.38;6091654;23;20085;-87
2021/09/03 17:23:28;;;;;;;16.35;8.82;;;;;;;17.50;67.87;101521.00;6042293;23;20344;-88
2021/09/03 17:25:54;;;;;;;18.75;9.55;;;;;;;17.46;67.55;101517.00;6020032;23;20016;-88
2021/09/03 17:28:24;;;;;;;16.25;8.63;;;;;;;17.34;68.35;101517.56;6021093;23;20404;-88
2021/09/03 17:30:50;;;;;;;14.80;8.63;;;;;;;17.30;68.95;101520.91;6021437;23;20038;-88
2021/09/03 17:33:15;;;;;;;17.02;9.15;;;;;;;17.06;69.70;101495.06;6019995;23;20462;-88
2021/09/03 17:35:41;;;;;;;19.40;9.15;;;;;;;17.02;70.00;101478.34;6043784;23;20010;-87
2021/09/03 17:38:07;;;;;;;19.95;9.05;;;;;;;16.99;70.61;101478.75;6044536;23;20014;-88
2021/09/03 17:40:32;;;;;;;21.02;8.98;;;;;;;17.07;72.20;101508.47;6020204;23;20146;-87
2021/09/03 17:42:58;;;;;;;17.65;9.05;;;;;;;16.98;73.33;101511.53;6043376;23;20002;-87
2021/09/03 17:45:25;;;;;;;14.90;8.55;;;;;;;16.92;73.94;101496.88;6019020;23;20006;-89
2021/09/03 17:47:51;;;;;;;13.15;8.70;;;;;;;16.91;74.09;101497.91;6041946;23;20089;-86
2021/09/03 17:50:17;;;;;;;18.25;10.02;;;;;;;16.89;74.52;101497.28;6042074;23;20110;-88
2021/09/03 17:52:43;;;;;;;16.17;8.98;;;;;;;16.87;74.77;101493.91;6065692;23;20013;-88
2021/09/03 17:55:09;;;;;;;18.88;9.68;;;;;;;16.86;75.07;101503.09;6016159;23;20864;-87
2021/09/03 17:57:35;;;;;;;18.25;9.82;;;;;;;16.80;75.01;101493.03;6018368;23;20440;-88
2021/09/03 18:00:01;;;;;;;17.55;9.05;;;;;;;16.77;75.27;101488.81;6020703;23;20014;-89
2021/09/03 18:02:26;;;;;;;16.38;9.68;;;;;;;16.69;75.25;101484.34;6043948;23;20009;-88
2021/09/03 18:04:52;;;;;;;19.25;10.27;;;;;;;16.77;75.02;101496.09;6020370;23;20057;-88
2021/09/03 18:07:17;;;;;;;17.80;9.40;;;;;;;16.77;74.47;101490.66;6018747;23;20097;-88
2021/09/03 18:09:45;;;;;;;20.02;9.65;;;;;;;16.71;75.07;101493.16;6019293;23;20011;-87
2021/09/03 18:12:11;;;;;;;16.17;9.45;;;;;;;16.66;75.59;101495.63;6044052;23;20339;-88
2021/09/03 18:14:37;;;;;;;17.23;10.15;;;;;;;16.73;75.89;101494.84;6043565;23;20432;-89
2021/09/03 18:17:04;;;;;;;20.77;10.10;;;;;;;16.77;75.41;101496.09;6020550;23;20017;-88
2021/09/03 18:19:29;;;;;;;20.85;11.30;;;;;;;16.78;75.25;101495.13;6022361;23;20010;-89
2021/09/03 18:21:57;;;;;;;18.38;9.70;;;;;;;16.75;75.71;101498.19;6046480;23;20033;-88
2021/09/03 18:24:23;;;;;;;21.25;10.07;;;;;;;16.74;76.30;101496.50;6021741;23;20018;-87
2021/09/03 18:26:48;;;;;;;20.42;10.27;;;;;;;16.73;76.75;101489.41;6043651;23;20070;-87
2021/09/03 18:29:14;;;;;;;21.38;10.57;;;;;;;16.71;76.83;101495.03;6044125;23;20372;-88
2021/09/03 18:31:40;;;;;;;21.40;11.10;;;;;;;16.63;77.19;101492.47;6044463;23;20046;-87
2021/09/03 18:34:06;;;;;;;21.65;11.30;;;;;;;16.55;77.95;101484.47;6020426;23;20002;-87
2021/09/03 18:36:31;;;;;;;21.83;10.40;;;;;;;16.56;78.38;101508.69;6044286;23;20014;-87
2021/09/03 18:38:57;;;;;;;16.70;9.57;;;;;;;16.45;78.70;101495.66;6044933;23;20007;-88
2021/09/03 18:41:23;;;;;;;18.25;9.07;;;;;;;16.44;79.23;101491.28;6044420;23;20002;-87
2021/09/03 18:43:48;;;;;;;17.08;9.80;;;;;;;16.43;79.85;101485.03;6020575;23;20017;-87
2021/09/03 22:35:54;;;;;;;73.67;36.60;;;;;;;14.80;84.35;101450.25;6106567;23;20399;-88
2021/09/03 22:38:20;;;;;;;42.33;23.42;;;;;;;15.07;84.19;101493.94;6042058;23;20651;-88
2021/09/03 22:40:46;;;;;;;29.73;15.40;;;;;;;15.09;83.90;101490.00;6018612;23;20463;-87
2021/09/03 22:43:11;;;;;;;38.38;18.60;;;;;;;14.97;83.68;101458.16;6020127;23;20010;-88
2021/09/03 22:45:37;;;;;;;35.47;18.38;;;;;;;15.14;83.63;101487.59;6019728;23;20096;-90
2021/09/03 22:48:08;;;;;;;43.33;20.95;;;;;;;15.12;84.17;101489.63;6042620;23;20002;-88
2021/09/03 22:50:34;;;;;;;39.40;19.77;;;;;;;15.07;84.28;101478.53;6041433;23;20368;-86
2021/09/03 22:53:00;;;;;;;31.80;14.68;;;;;;;15.10;84.59;101485.44;6041281;23;20086;-89
2021/09/03 22:55:25;;;;;;;26.38;13.15;;;;;;;15.07;84.47;101489.34;6042825;23;20006;-88
2021/09/03 22:57:51;;;;;;;25.88;13.43;;;;;;;15.02;83.91;101474.69;6041597;23;20448;-86
2021/09/03 23:00:17;;;;;;;25.27;13.60;;;;;;;14.99;83.87;101483.19;6041481;23;20006;-88
2021/09/03 23:02:42;;;;;;;25.50;12.10;;;;;;;14.93;84.22;101477.50;6017951;23;20010;-88
2021/09/03 23:05:08;;;;;;;28.35;13.30;;;;;;;14.94;83.98;101481.03;6017002;23;20644;-88
2021/09/03 23:07:35;;;;;;;26.27;11.25;;;;;;;14.90;84.00;101471.63;6040847;23;20007;-88
2021/09/03 23:10:01;;;;;;;24.13;12.50;;;;;;;14.89;83.75;101472.66;6043860;23;20424;-90
2021/09/03 23:12:26;;;;;;;23.50;12.40;;;;;;;14.87;83.55;101478.25;6020200;23;20042;-90
2021/09/03 23:14:52;;;;;;;23.40;12.23;;;;;;;14.86;83.44;101478.44;6020932;23;20010;-90
2021/09/03 23:17:17;;;;;;;31.15;13.20;;;;;;;14.85;83.24;101471.34;6020921;23;20350;-89
2021/09/03 23:19:43;;;;;;;26.80;11.38;;;;;;;14.77;83.36;101457.91;6044143;23;20014;-86
2021/09/03 23:22:09;;;;;;;27.35;11.55;;;;;;;14.83;83.51;101470.69;6043842;23;20093;-85
2021/09/03 23:24:35;;;;;;;28.33;12.45;;;;;;;14.85;83.58;101482.19;6043095;23;20013;-89
2021/09/03 23:27:01;;;;;;;27.50;12.80;;;;;;;14.83;83.52;101466.09;6042254;23;20007;-87
2021/09/03 23:29:26;;;;;;;27.38;12.13;;;;;;;14.80;83.57;101458.38;6017816;23;20173;-88
2021/09/03 23:31:52;;;;;;;25.02;11.63;;;;;;;14.76;83.48;101448.91;6041269;23;20061;-85
2021/09/03 23:34:18;;;;;;;28.55;11.80;;;;;;;14.84;83.69;101465.06;6041699;23;20016;-89
2021/09/03 23:36:43;;;;;;;25.20;10.95;;;;;;;14.81;83.43;101465.44;6089748;23;20471;-89
2021/09/03 23:39:09;;;;;;;26.60;11.60;;;;;;;14.77;83.62;101463.31;6066992;23;20011;-90
2021/09/03 23:41:34;;;;;;;24.83;11.52;;;;;;;14.71;84.21;101454.06;6043327;23;20459;-87
2021/09/03 23:44:00;;;;;;;23.73;11.20;;;;;;;14.69;83.94;101448.00;6043517;23;20019;-90
2021/09/03 23:46:26;;;;;;;25.52;12.57;;;;;;;14.71;83.91;101463.03;6042479;23;20006;-91
2021/09/03 23:48:51;;;;;;;25.73;11.82;;;;;;;14.77;83.62;101468.75;6066484;23;20002;-90
2021/09/03 23:51:17;;;;;;;26.88;11.23;;;;;;;14.76;83.18;101467.03;6043342;23;20006;-89
2021/09/03 23:53:42;;;;;;;23.05;11.60;;;;;;;14.73;82.93;101449.31;6043325;23;20018;-89
2021/09/03 23:56:08;;;;;;;24.02;11.00;;;;;;;14.76;83.05;101454.34;6067787;23;20006;-89
2021/09/03 23:58:33;;;;;;;23.40;10.70;;;;;;;14.71;82.96;101444.09;6043169;23;20020;-89
